DAAD

Bou Saada Airport

Airport
ICAO code
DAAD
Summary
ICAO Region
AFI
ICAO Territory
Location

, M'sila

Serving
Bou Saada
Elevation
1506 ft
Coordinates
35° 19' 57" N , 4° 12' 23" E
Metar
DAAD 271100Z 31017KT 9999 FEW026TCU BKN030 13/01 Q1010

Runways

Designator Length Width Surface Rops
4/22 2200 30 ASP No/No

Airport map

Aerial View

SKYbrary Partners:

Safety knowledge contributed by: